• Join FlightAware (Why Join?)
  • Login
  • US Flag 
10:12PM EDT


 

Airport Tracker/Info


-or-


 

Live Flight TrackerFlight Track Log ✈ UPS1122 ✈ 09-May-2013 ✈ KPHL - KBDL

Flight Track Log - Related Links

Times and Time Zones

All times are in EDT time to prevent confusion due to time zone crossing. See the UPS1122 flight status page for this flight to view local times or setup timezone preferences in your user account.

Time Position Orientation Groundspeed Altitude Reporting Facility
EDT Latitude Longitude Course Direction KTS MPH feet Rate Location/Type
03:46AM 39.8840 -75.1740 270° West 212 244 2,500  Level FlightAware
03:47AM 39.8660 -75.0770 104° East 259 298 5,500 2,640 Climbing FlightAware
03:47AM 39.8640 -75.0700 110° East 260 299 5,800 3,240 Climbing FlightAware
03:49AM 39.8440 -74.9670 104° East 271 312 9,300 3,180 Climbing FlightAware
03:49AM 39.8410 -74.9510 104° East 274 315 9,800 1,680 Climbing FlightAware
03:50AM 39.8340 -74.8140 94° East 360 414 11,600 1,740 Climbing FlightAware
03:51AM 39.8750 -74.7320 57° Northeast 376 433 13,200 2,100 Climbing FlightAware
03:51AM 39.9230 -74.6500 53° Northeast 392 451 14,800 2,100 Climbing FlightAware
03:52AM 39.9840 -74.5910 37° Northeast 403 464 16,200 1,980 Climbing FlightAware
03:53AM 40.0480 -74.5330 35° Northeast 415 478 17,500 1,800 Climbing FlightAware
03:53AM 40.1170 -74.4690 35° Northeast 423 487 18,800 1,680 Climbing FlightAware
03:54AM 40.1810 -74.4100 35° Northeast 432 497 19,900 1,680 Climbing FlightAware
03:55AM 40.2580 -74.3390 35° Northeast 440 506 21,200 1,800 Climbing FlightAware
03:56AM 40.3250 -74.2770 35° Northeast 441 507 22,500 1,320 Climbing FlightAware
03:56AM 40.3890 -74.2170 36° Northeast 441 507 23,000 300 Climbing FlightAware
03:57AM 40.4650 -74.1460 35° Northeast 439 505 23,000  Level FlightAware
03:58AM 40.5310 -74.0840 36° Northeast 439 505 23,000  Level FlightAware
03:58AM 40.6070 -74.0120 36° Northeast 443 510 23,000  Level FlightAware
03:59AM 40.6730 -73.9490 36° Northeast 443 510 23,000  Level FlightAware
04:00AM 40.7410 -73.8850 35° Northeast 442 509 23,000  Level FlightAware
04:00AM 40.8140 -73.8160 36° Northeast 440 506 23,000  Level FlightAware
04:01AM 40.8800 -73.7540 35° Northeast 439 505 23,000  Level FlightAware
04:02AM 40.9460 -73.6910 36° Northeast 436 502 23,000  Level FlightAware
04:03AM 41.0190 -73.6220 35° Northeast 436 502 23,000  Level FlightAware
04:03AM 41.0850 -73.5590 36° Northeast 436 502 23,000 -720 Level FlightAware
04:04AM 41.1590 -73.4890 35° Northeast 425 489 22,000 -2,220 Descending FlightAware
04:05AM 41.2240 -73.4270 36° Northeast 433 498 19,900 -3,780 Descending FlightAware
04:05AM 41.2950 -73.3590 36° Northeast 440 506 16,700 -4,440 Descending FlightAware
04:06AM 41.3410 -73.3150 36° Northeast 424 488 14,400 -1,860 Descending FlightAware
04:07AM 41.4080 -73.2530 35° Northeast 424 488 14,400  Level FlightAware
04:07AM 41.4760 -73.1890 35° Northeast 424 488 14,400 -2,340 Level FlightAware
04:08AM 41.5231 -73.1389 35° Northeast 343 395 11,100 -3,000 Descending Boston Center
04:09AM 41.5564 -73.1086 34° Northeast 341 392 11,100 -600 Level Boston Center
04:09AM 41.6006 -73.0647 37° Northeast 317 365 10,500 -1,740 Descending Boston Center
04:10AM 41.6319 -73.0372 33° Northeast 310 357 9,400 -2,460 Descending Boston Center
04:10AM 41.6694 -73.0014 36° Northeast 306 352 8,000 -2,340 Descending Boston Center
04:11AM 41.6925 -72.9767 39° Northeast 305 351 7,100 -2,100 Descending Boston Center
04:11AM 41.7344 -72.9353 36° Northeast 295 339 5,900 -1,920 Descending Boston Center
04:12AM 41.7617 -72.9103 34° Northeast 292 336 5,200 -1,680 Descending Boston Center
04:12AM 41.7931 -72.8800 36° Northeast 266 306 4,200 -1,620 Descending Boston Center
04:13AM 41.8139 -72.8550 42° Northeast 269 310 3,600 -1,320 Descending Boston Center
04:13AM 41.8328 -72.8303 44° Northeast 199 229 2,900 -960 Descending Boston Center
04:14AM 41.8642 -72.7886 45° Northeast 147 169 2,100 -780 Descending Boston Center
04:15AM 41.8894 -72.7553 44° Northeast 136 157 1,400 -720 Descending Boston Center
04:16AM 41.9167 -72.7192 45° Northeast 131 151 700 -720 Descending Boston Center
04:18AM 41.9333 -72.6833 45° Northeast  Level FlightAware Approximate
04:25AM 41.9392 -72.6834 45° Northeast  Level Estimated
04:26AM 41.9333 -72.6833 45° Northeast  Level FlightAware Approximate
04:27AM 41.9392 -72.6834 45° Northeast  Level Estimated
04:28AM 41.9333 -72.6833 45° Northeast  Level FlightAware Approximate
04:29AM 41.9392 -72.6834 45° Northeast  Level Estimated
04:30AM 41.9333 -72.6833 45° Northeast  Level FlightAware Approximate
04:31AM 41.9392 -72.6834 45° Northeast  Level Estimated